sensor_id;sensor_type;location;lat;lon;timestamp;temperature;humidity
27671;DHT22;15077;49.704;9.908;2023-04-06T00:01:51;5.60;48.20
27671;DHT22;15077;49.704;9.908;2023-04-06T00:04:17;5.60;48.20
27671;DHT22;15077;49.704;9.908;2023-04-06T00:06:43;5.60;48.10
27671;DHT22;15077;49.704;9.908;2023-04-06T00:09:09;5.50;48.20
27671;DHT22;15077;49.704;9.908;2023-04-06T00:11:35;5.50;48.20
27671;DHT22;15077;49.704;9.908;2023-04-06T00:14:01;5.50;48.20
27671;DHT22;15077;49.704;9.908;2023-04-06T00:16:27;5.50;48.30
27671;DHT22;15077;49.704;9.908;2023-04-06T00:18:52;5.40;48.30
27671;DHT22;15077;49.704;9.908;2023-04-06T00:21:18;5.40;48.30
27671;DHT22;15077;49.704;9.908;2023-04-06T00:23:44;5.40;48.40
27671;DHT22;15077;49.704;9.908;2023-04-06T00:26:09;5.40;48.40
27671;DHT22;15077;49.704;9.908;2023-04-06T00:28:37;5.40;48.40
27671;DHT22;15077;49.704;9.908;2023-04-06T00:31:04;5.40;48.50
27671;DHT22;15077;49.704;9.908;2023-04-06T00:33:30;5.30;48.50
27671;DHT22;15077;49.704;9.908;2023-04-06T00:35:55;5.30;48.40
27671;DHT22;15077;49.704;9.908;2023-04-06T00:38:22;5.30;48.60
27671;DHT22;15077;49.704;9.908;2023-04-06T00:40:48;5.30;48.50
27671;DHT22;15077;49.704;9.908;2023-04-06T00:43:17;5.20;48.50
27671;DHT22;15077;49.704;9.908;2023-04-06T00:45:44;5.20;48.50
27671;DHT22;15077;49.704;9.908;2023-04-06T00:48:10;5.20;48.50
27671;DHT22;15077;49.704;9.908;2023-04-06T00:50:36;5.20;48.60
27671;DHT22;15077;49.704;9.908;2023-04-06T00:53:02;5.20;48.70
27671;DHT22;15077;49.704;9.908;2023-04-06T00:55:28;5.10;48.70
27671;DHT22;15077;49.704;9.908;2023-04-06T00:57:58;5.10;48.70
27671;DHT22;15077;49.704;9.908;2023-04-06T01:00:26;5.10;48.80
27671;DHT22;15077;49.704;9.908;2023-04-06T01:02:53;5.10;48.80
27671;DHT22;15077;49.704;9.908;2023-04-06T01:05:19;5.10;48.80
27671;DHT22;15077;49.704;9.908;2023-04-06T01:07:46;5.00;48.80
27671;DHT22;15077;49.704;9.908;2023-04-06T01:10:27;5.00;48.80
27671;DHT22;15077;49.704;9.908;2023-04-06T01:12:54;5.00;49.00
27671;DHT22;15077;49.704;9.908;2023-04-06T01:15:20;5.00;48.80
27671;DHT22;15077;49.704;9.908;2023-04-06T01:17:48;5.00;48.90
27671;DHT22;15077;49.704;9.908;2023-04-06T01:20:15;4.90;48.90
27671;DHT22;15077;49.704;9.908;2023-04-06T01:25:25;4.90;49.20
27671;DHT22;15077;49.704;9.908;2023-04-06T01:27:51;4.90;48.90
27671;DHT22;15077;49.704;9.908;2023-04-06T01:30:17;4.80;48.90
27671;DHT22;15077;49.704;9.908;2023-04-06T01:32:44;4.80;48.90
27671;DHT22;15077;49.704;9.908;2023-04-06T01:35:11;4.80;49.00
27671;DHT22;15077;49.704;9.908;2023-04-06T01:37:38;4.80;49.10
27671;DHT22;15077;49.704;9.908;2023-04-06T01:40:07;4.70;49.00
27671;DHT22;15077;49.704;9.908;2023-04-06T01:42:34;4.70;49.00
27671;DHT22;15077;49.704;9.908;2023-04-06T01:45:00;4.70;49.00
27671;DHT22;15077;49.704;9.908;2023-04-06T01:47:26;4.70;49.10
27671;DHT22;15077;49.704;9.908;2023-04-06T01:49:52;4.60;49.00
27671;DHT22;15077;49.704;9.908;2023-04-06T01:52:20;4.60;49.10
27671;DHT22;15077;49.704;9.908;2023-04-06T01:54:46;4.60;49.10
27671;DHT22;15077;49.704;9.908;2023-04-06T01:57:16;4.60;49.10
27671;DHT22;15077;49.704;9.908;2023-04-06T01:59:44;4.50;49.10
27671;DHT22;15077;49.704;9.908;2023-04-06T02:02:12;4.50;49.20
27671;DHT22;15077;49.704;9.908;2023-04-06T02:04:38;4.50;49.30
27671;DHT22;15077;49.704;9.908;2023-04-06T02:07:04;4.50;49.30
27671;DHT22;15077;49.704;9.908;2023-04-06T02:09:30;4.50;49.30
27671;DHT22;15077;49.704;9.908;2023-04-06T02:11:57;4.40;49.40
27671;DHT22;15077;49.704;9.908;2023-04-06T02:14:26;4.40;49.40
27671;DHT22;15077;49.704;9.908;2023-04-06T02:16:54;4.40;49.40
27671;DHT22;15077;49.704;9.908;2023-04-06T02:19:20;4.40;49.40
27671;DHT22;15077;49.704;9.908;2023-04-06T02:21:47;4.30;49.40
27671;DHT22;15077;49.704;9.908;2023-04-06T02:24:14;4.30;49.40
27671;DHT22;15077;49.704;9.908;2023-04-06T02:26:42;4.30;49.50
27671;DHT22;15077;49.704;9.908;2023-04-06T02:29:09;4.30;49.50
27671;DHT22;15077;49.704;9.908;2023-04-06T02:31:37;4.20;49.50
27671;DHT22;15077;49.704;9.908;2023-04-06T02:34:04;4.20;49.60
27671;DHT22;15077;49.704;9.908;2023-04-06T02:36:31;4.20;49.60
27671;DHT22;15077;49.704;9.908;2023-04-06T02:38:57;4.20;49.60
27671;DHT22;15077;49.704;9.908;2023-04-06T02:41:23;4.20;49.60
27671;DHT22;15077;49.704;9.908;2023-04-06T02:43:50;4.10;49.60
27671;DHT22;15077;49.704;9.908;2023-04-06T02:46:17;4.10;49.60
27671;DHT22;15077;49.704;9.908;2023-04-06T02:48:44;4.10;49.60
27671;DHT22;15077;49.704;9.908;2023-04-06T02:51:11;4.10;49.60
27671;DHT22;15077;49.704;9.908;2023-04-06T02:53:38;4.10;49.70
27671;DHT22;15077;49.704;9.908;2023-04-06T02:56:04;4.00;50.10
27671;DHT22;15077;49.704;9.908;2023-04-06T02:58:31;4.00;49.70
27671;DHT22;15077;49.704;9.908;2023-04-06T03:00:59;4.00;50.40
27671;DHT22;15077;49.704;9.908;2023-04-06T03:03:26;4.00;49.80
27671;DHT22;15077;49.704;9.908;2023-04-06T03:05:51;3.90;49.70
27671;DHT22;15077;49.704;9.908;2023-04-06T03:08:19;3.90;49.70
27671;DHT22;15077;49.704;9.908;2023-04-06T03:10:45;3.90;49.70
27671;DHT22;15077;49.704;9.908;2023-04-06T03:13:12;3.90;49.80
27671;DHT22;15077;49.704;9.908;2023-04-06T03:15:39;3.90;49.80
27671;DHT22;15077;49.704;9.908;2023-04-06T03:18:05;3.80;49.80
27671;DHT22;15077;49.704;9.908;2023-04-06T03:20:32;3.80;49.80
27671;DHT22;15077;49.704;9.908;2023-04-06T03:22:59;3.80;49.90
27671;DHT22;15077;49.704;9.908;2023-04-06T03:25:27;3.80;50.50
27671;DHT22;15077;49.704;9.908;2023-04-06T03:27:56;3.70;49.90
27671;DHT22;15077;49.704;9.908;2023-04-06T03:30:23;3.70;49.90
27671;DHT22;15077;49.704;9.908;2023-04-06T03:32:49;3.70;49.90
27671;DHT22;15077;49.704;9.908;2023-04-06T03:35:16;3.70;50.00
27671;DHT22;15077;49.704;9.908;2023-04-06T03:37:44;3.70;50.00
27671;DHT22;15077;49.704;9.908;2023-04-06T03:40:11;3.60;50.00
27671;DHT22;15077;49.704;9.908;2023-04-06T03:42:37;3.60;50.00
27671;DHT22;15077;49.704;9.908;2023-04-06T03:45:02;3.60;50.00
27671;DHT22;15077;49.704;9.908;2023-04-06T03:47:28;3.60;50.00
27671;DHT22;15077;49.704;9.908;2023-04-06T03:49:54;3.60;50.10
27671;DHT22;15077;49.704;9.908;2023-04-06T03:52:20;3.50;50.00
27671;DHT22;15077;49.704;9.908;2023-04-06T03:54:48;3.50;50.10
27671;DHT22;15077;49.704;9.908;2023-04-06T03:57:16;3.50;50.20
27671;DHT22;15077;49.704;9.908;2023-04-06T03:59:42;3.50;50.20
27671;DHT22;15077;49.704;9.908;2023-04-06T04:02:08;3.50;50.20
27671;DHT22;15077;49.704;9.908;2023-04-06T04:04:34;3.40;50.20
27671;DHT22;15077;49.704;9.908;2023-04-06T04:07:01;3.40;50.20
27671;DHT22;15077;49.704;9.908;2023-04-06T04:09:26;3.40;50.20
27671;DHT22;15077;49.704;9.908;2023-04-06T04:11:52;3.40;50.20
27671;DHT22;15077;49.704;9.908;2023-04-06T04:14:18;3.40;50.30
27671;DHT22;15077;49.704;9.908;2023-04-06T04:16:43;3.40;50.30
27671;DHT22;15077;49.704;9.908;2023-04-06T04:19:09;3.30;50.20
27671;DHT22;15077;49.704;9.908;2023-04-06T04:21:42;3.30;50.30
27671;DHT22;15077;49.704;9.908;2023-04-06T04:24:12;3.30;50.40
27671;DHT22;15077;49.704;9.908;2023-04-06T04:26:39;3.30;50.30
27671;DHT22;15077;49.704;9.908;2023-04-06T04:29:05;3.30;50.30
27671;DHT22;15077;49.704;9.908;2023-04-06T04:31:31;3.20;50.30
27671;DHT22;15077;49.704;9.908;2023-04-06T04:33:59;3.20;50.40
27671;DHT22;15077;49.704;9.908;2023-04-06T04:36:25;3.20;50.40
27671;DHT22;15077;49.704;9.908;2023-04-06T04:38:52;3.20;50.40
27671;DHT22;15077;49.704;9.908;2023-04-06T04:41:18;3.20;50.40
27671;DHT22;15077;49.704;9.908;2023-04-06T04:43:44;3.10;50.40
27671;DHT22;15077;49.704;9.908;2023-04-06T04:46:09;3.10;50.50
27671;DHT22;15077;49.704;9.908;2023-04-06T04:48:35;3.10;50.50
27671;DHT22;15077;49.704;9.908;2023-04-06T04:51:01;3.10;50.50
27671;DHT22;15077;49.704;9.908;2023-04-06T04:53:27;3.10;50.60
27671;DHT22;15077;49.704;9.908;2023-04-06T04:55:53;3.00;50.50
27671;DHT22;15077;49.704;9.908;2023-04-06T04:58:18;3.00;50.70
27671;DHT22;15077;49.704;9.908;2023-04-06T05:00:45;3.00;50.70
27671;DHT22;15077;49.704;9.908;2023-04-06T05:03:25;3.00;50.70
27671;DHT22;15077;49.704;9.908;2023-04-06T05:05:52;3.00;50.80
27671;DHT22;15077;49.704;9.908;2023-04-06T05:08:18;3.00;50.70
27671;DHT22;15077;49.704;9.908;2023-04-06T05:10:44;2.90;50.70
27671;DHT22;15077;49.704;9.908;2023-04-06T05:13:10;2.90;50.70
27671;DHT22;15077;49.704;9.908;2023-04-06T05:15:36;2.90;50.80
27671;DHT22;15077;49.704;9.908;2023-04-06T05:18:09;2.90;50.80
27671;DHT22;15077;49.704;9.908;2023-04-06T05:20:35;2.90;50.90
27671;DHT22;15077;49.704;9.908;2023-04-06T05:23:01;2.90;50.90
27671;DHT22;15077;49.704;9.908;2023-04-06T05:25:27;2.90;50.90
27671;DHT22;15077;49.704;9.908;2023-04-06T05:27:53;2.90;51.00
27671;DHT22;15077;49.704;9.908;2023-04-06T05:30:19;2.90;51.00
27671;DHT22;15077;49.704;9.908;2023-04-06T05:32:45;2.90;51.60
27671;DHT22;15077;49.704;9.908;2023-04-06T05:35:11;2.90;51.00
27671;DHT22;15077;49.704;9.908;2023-04-06T05:37:38;2.90;51.10
27671;DHT22;15077;49.704;9.908;2023-04-06T05:40:06;2.90;51.10
27671;DHT22;15077;49.704;9.908;2023-04-06T05:42:41;2.90;51.20
27671;DHT22;15077;49.704;9.908;2023-04-06T05:45:11;3.00;51.30
27671;DHT22;15077;49.704;9.908;2023-04-06T05:47:42;3.00;51.30
27671;DHT22;15077;49.704;9.908;2023-04-06T05:50:12;3.00;51.30
27671;DHT22;15077;49.704;9.908;2023-04-06T05:52:39;3.00;51.30
27671;DHT22;15077;49.704;9.908;2023-04-06T05:55:08;3.00;51.40
27671;DHT22;15077;49.704;9.908;2023-04-06T05:57:35;3.00;51.40
27671;DHT22;15077;49.704;9.908;2023-04-06T06:00:01;3.10;51.50
27671;DHT22;15077;49.704;9.908;2023-04-06T06:02:30;3.10;51.60
27671;DHT22;15077;49.704;9.908;2023-04-06T06:04:57;3.10;51.70
27671;DHT22;15077;49.704;9.908;2023-04-06T06:07:23;3.10;51.80
27671;DHT22;15077;49.704;9.908;2023-04-06T06:09:49;3.20;51.90
27671;DHT22;15077;49.704;9.908;2023-04-06T06:12:15;3.20;51.80
27671;DHT22;15077;49.704;9.908;2023-04-06T06:14:40;3.20;51.90
27671;DHT22;15077;49.704;9.908;2023-04-06T06:17:06;3.20;51.90
27671;DHT22;15077;49.704;9.908;2023-04-06T06:19:32;3.20;52.00
27671;DHT22;15077;49.704;9.908;2023-04-06T06:21:57;3.20;52.00
27671;DHT22;15077;49.704;9.908;2023-04-06T06:24:24;3.30;52.30
27671;DHT22;15077;49.704;9.908;2023-04-06T06:26:49;3.30;52.50
27671;DHT22;15077;49.704;9.908;2023-04-06T06:29:15;3.30;52.70
27671;DHT22;15077;49.704;9.908;2023-04-06T06:31:41;3.30;52.70
27671;DHT22;15077;49.704;9.908;2023-04-06T06:34:07;3.40;52.80
27671;DHT22;15077;49.704;9.908;2023-04-06T06:36:32;3.40;52.70
27671;DHT22;15077;49.704;9.908;2023-04-06T06:38:58;3.40;52.60
27671;DHT22;15077;49.704;9.908;2023-04-06T06:41:25;3.50;52.80
27671;DHT22;15077;49.704;9.908;2023-04-06T06:43:51;3.50;53.10
27671;DHT22;15077;49.704;9.908;2023-04-06T06:46:17;3.50;53.80
27671;DHT22;15077;49.704;9.908;2023-04-06T06:48:43;3.60;54.40
27671;DHT22;15077;49.704;9.908;2023-04-06T06:51:08;3.60;53.80
27671;DHT22;15077;49.704;9.908;2023-04-06T06:53:35;3.70;54.00
27671;DHT22;15077;49.704;9.908;2023-04-06T06:56:01;3.70;54.20
27671;DHT22;15077;49.704;9.908;2023-04-06T06:58:26;3.80;54.40
27671;DHT22;15077;49.704;9.908;2023-04-06T07:00:56;3.80;54.70
27671;DHT22;15077;49.704;9.908;2023-04-06T07:03:22;3.90;54.90
27671;DHT22;15077;49.704;9.908;2023-04-06T07:05:49;3.90;54.70
27671;DHT22;15077;49.704;9.908;2023-04-06T07:08:22;4.00;55.50
27671;DHT22;15077;49.704;9.908;2023-04-06T07:10:49;4.10;55.40
27671;DHT22;15077;49.704;9.908;2023-04-06T07:13:18;4.10;55.40
27671;DHT22;15077;49.704;9.908;2023-04-06T07:15:50;4.20;55.50
27671;DHT22;15077;49.704;9.908;2023-04-06T07:18:16;4.20;56.20
27671;DHT22;15077;49.704;9.908;2023-04-06T07:20:43;4.40;56.80
27671;DHT22;15077;49.704;9.908;2023-04-06T07:23:09;4.40;56.80
27671;DHT22;15077;49.704;9.908;2023-04-06T07:25:35;4.50;56.90
27671;DHT22;15077;49.704;9.908;2023-04-06T07:28:02;4.60;57.70
27671;DHT22;15077;49.704;9.908;2023-04-06T07:30:31;4.70;57.00
27671;DHT22;15077;49.704;9.908;2023-04-06T07:32:56;4.80;56.70
27671;DHT22;15077;49.704;9.908;2023-04-06T07:35:25;4.80;56.90
27671;DHT22;15077;49.704;9.908;2023-04-06T07:37:52;5.00;56.80
27671;DHT22;15077;49.704;9.908;2023-04-06T07:40:19;5.00;56.70
27671;DHT22;15077;49.704;9.908;2023-04-06T07:42:45;5.10;56.70
27671;DHT22;15077;49.704;9.908;2023-04-06T07:45:11;5.20;56.50
27671;DHT22;15077;49.704;9.908;2023-04-06T07:47:37;5.30;56.40
27671;DHT22;15077;49.704;9.908;2023-04-06T07:50:03;5.40;56.40
27671;DHT22;15077;49.704;9.908;2023-04-06T07:52:29;5.40;56.20
27671;DHT22;15077;49.704;9.908;2023-04-06T07:54:55;5.50;56.20
27671;DHT22;15077;49.704;9.908;2023-04-06T07:57:21;5.60;56.00
27671;DHT22;15077;49.704;9.908;2023-04-06T07:59:46;5.60;55.80
27671;DHT22;15077;49.704;9.908;2023-04-06T08:02:12;5.70;55.90
27671;DHT22;15077;49.704;9.908;2023-04-06T08:04:38;5.80;56.00
27671;DHT22;15077;49.704;9.908;2023-04-06T08:07:03;5.80;56.70
27671;DHT22;15077;49.704;9.908;2023-04-06T08:09:29;5.90;56.60
27671;DHT22;15077;49.704;9.908;2023-04-06T08:11:55;6.00;55.90
27671;DHT22;15077;49.704;9.908;2023-04-06T08:14:21;6.00;56.00
27671;DHT22;15077;49.704;9.908;2023-04-06T08:16:46;6.10;55.80
27671;DHT22;15077;49.704;9.908;2023-04-06T08:19:12;6.20;55.80
27671;DHT22;15077;49.704;9.908;2023-04-06T08:21:38;6.30;55.70
27671;DHT22;15077;49.704;9.908;2023-04-06T08:24:05;6.30;55.60
27671;DHT22;15077;49.704;9.908;2023-04-06T08:26:31;6.40;55.60
27671;DHT22;15077;49.704;9.908;2023-04-06T08:28:57;6.50;55.50
27671;DHT22;15077;49.704;9.908;2023-04-06T08:31:23;6.60;55.50
27671;DHT22;15077;49.704;9.908;2023-04-06T08:33:49;6.70;55.50
27671;DHT22;15077;49.704;9.908;2023-04-06T08:36:15;6.80;55.50
27671;DHT22;15077;49.704;9.908;2023-04-06T08:38:42;6.90;55.40
27671;DHT22;15077;49.704;9.908;2023-04-06T08:41:12;7.00;55.30
27671;DHT22;15077;49.704;9.908;2023-04-06T08:43:47;7.10;55.10
27671;DHT22;15077;49.704;9.908;2023-04-06T08:46:15;7.20;55.20
27671;DHT22;15077;49.704;9.908;2023-04-06T08:48:42;7.30;55.10
27671;DHT22;15077;49.704;9.908;2023-04-06T08:51:09;7.40;55.00
27671;DHT22;15077;49.704;9.908;2023-04-06T08:53:36;7.60;54.90
27671;DHT22;15077;49.704;9.908;2023-04-06T08:56:03;7.70;55.00
27671;DHT22;15077;49.704;9.908;2023-04-06T08:58:34;7.80;54.90
27671;DHT22;15077;49.704;9.908;2023-04-06T09:01:06;7.90;54.70
27671;DHT22;15077;49.704;9.908;2023-04-06T09:03:37;8.10;54.70
27671;DHT22;15077;49.704;9.908;2023-04-06T09:06:05;8.20;54.60
27671;DHT22;15077;49.704;9.908;2023-04-06T09:08:37;8.40;54.50
27671;DHT22;15077;49.704;9.908;2023-04-06T09:11:04;8.60;54.50
27671;DHT22;15077;49.704;9.908;2023-04-06T09:13:30;8.70;54.20
27671;DHT22;15077;49.704;9.908;2023-04-06T09:16:04;8.90;54.00
27671;DHT22;15077;49.704;9.908;2023-04-06T09:18:32;9.10;53.70
27671;DHT22;15077;49.704;9.908;2023-04-06T09:21:03;9.20;53.50
27671;DHT22;15077;49.704;9.908;2023-04-06T09:23:30;9.40;53.60
27671;DHT22;15077;49.704;9.908;2023-04-06T09:26:06;9.60;52.60
27671;DHT22;15077;49.704;9.908;2023-04-06T09:28:51;9.80;53.00
27671;DHT22;15077;49.704;9.908;2023-04-06T09:31:29;10.00;52.40
27671;DHT22;15077;49.704;9.908;2023-04-06T09:33:58;10.20;52.10
27671;DHT22;15077;49.704;9.908;2023-04-06T09:36:32;10.40;51.60
27671;DHT22;15077;49.704;9.908;2023-04-06T09:39:02;10.60;51.10
27671;DHT22;15077;49.704;9.908;2023-04-06T09:41:32;10.70;50.90
27671;DHT22;15077;49.704;9.908;2023-04-06T09:44:09;10.90;50.70
27671;DHT22;15077;49.704;9.908;2023-04-06T09:46:42;11.10;50.10
27671;DHT22;15077;49.704;9.908;2023-04-06T09:49:10;11.20;51.10
27671;DHT22;15077;49.704;9.908;2023-04-06T09:51:47;11.40;51.00
27671;DHT22;15077;49.704;9.908;2023-04-06T09:54:19;11.60;50.20
27671;DHT22;15077;49.704;9.908;2023-04-06T09:56:50;11.80;50.00
27671;DHT22;15077;49.704;9.908;2023-04-06T10:02:05;12.10;49.50
27671;DHT22;15077;49.704;9.908;2023-04-06T10:04:37;12.30;49.30
27671;DHT22;15077;49.704;9.908;2023-04-06T10:07:09;12.40;49.20
27671;DHT22;15077;49.704;9.908;2023-04-06T10:09:37;12.50;49.00
27671;DHT22;15077;49.704;9.908;2023-04-06T10:12:07;12.70;48.30
27671;DHT22;15077;49.704;9.908;2023-04-06T10:14:34;12.90;47.80
27671;DHT22;15077;49.704;9.908;2023-04-06T10:17:06;13.00;47.50
27671;DHT22;15077;49.704;9.908;2023-04-06T10:19:55;13.10;47.30
27671;DHT22;15077;49.704;9.908;2023-04-06T10:25:09;13.40;47.60
27671;DHT22;15077;49.704;9.908;2023-04-06T10:27:35;13.50;47.20
27671;DHT22;15077;49.704;9.908;2023-04-06T10:30:05;13.70;47.00
27671;DHT22;15077;49.704;9.908;2023-04-06T10:32:36;13.80;46.80
27671;DHT22;15077;49.704;9.908;2023-04-06T10:35:11;14.00;46.40
27671;DHT22;15077;49.704;9.908;2023-04-06T10:37:53;14.10;45.00
27671;DHT22;15077;49.704;9.908;2023-04-06T10:40:25;14.20;46.00
27671;DHT22;15077;49.704;9.908;2023-04-06T10:42:53;14.30;46.40
27671;DHT22;15077;49.704;9.908;2023-04-06T10:45:21;14.40;45.70
27671;DHT22;15077;49.704;9.908;2023-04-06T10:47:50;14.40;45.80
27671;DHT22;15077;49.704;9.908;2023-04-06T10:50:18;14.50;44.80
27671;DHT22;15077;49.704;9.908;2023-04-06T10:52:45;14.60;45.30
27671;DHT22;15077;49.704;9.908;2023-04-06T10:55:16;14.70;45.70
27671;DHT22;15077;49.704;9.908;2023-04-06T10:57:42;14.80;45.10
27671;DHT22;15077;49.704;9.908;2023-04-06T11:00:08;14.90;45.00
27671;DHT22;15077;49.704;9.908;2023-04-06T11:02:37;15.00;44.00
27671;DHT22;15077;49.704;9.908;2023-04-06T11:05:03;15.10;43.50
27671;DHT22;15077;49.704;9.908;2023-04-06T11:07:29;15.10;43.40
27671;DHT22;15077;49.704;9.908;2023-04-06T11:09:56;15.20;44.10
27671;DHT22;15077;49.704;9.908;2023-04-06T11:15:00;15.40;44.50
27671;DHT22;15077;49.704;9.908;2023-04-06T11:17:30;15.50;43.60
27671;DHT22;15077;49.704;9.908;2023-04-06T11:19:57;15.60;42.10
27671;DHT22;15077;49.704;9.908;2023-04-06T11:22:25;15.70;43.10
27671;DHT22;15077;49.704;9.908;2023-04-06T11:24:51;15.80;42.80
27671;DHT22;15077;49.704;9.908;2023-04-06T11:27:19;15.80;42.80
27671;DHT22;15077;49.704;9.908;2023-04-06T11:29:46;15.90;42.30
27671;DHT22;15077;49.704;9.908;2023-04-06T11:32:19;16.00;41.00
27671;DHT22;15077;49.704;9.908;2023-04-06T11:34:47;16.00;41.20
27671;DHT22;15077;49.704;9.908;2023-04-06T11:37:13;16.10;40.40
27671;DHT22;15077;49.704;9.908;2023-04-06T11:39:47;16.10;40.20
27671;DHT22;15077;49.704;9.908;2023-04-06T11:42:28;16.10;40.70
27671;DHT22;15077;49.704;9.908;2023-04-06T11:44:58;16.10;40.00
27671;DHT22;15077;49.704;9.908;2023-04-06T11:47:36;16.10;40.80
27671;DHT22;15077;49.704;9.908;2023-04-06T11:50:11;16.20;39.90
27671;DHT22;15077;49.704;9.908;2023-04-06T11:52:40;16.20;40.60
27671;DHT22;15077;49.704;9.908;2023-04-06T11:55:15;16.30;39.90
27671;DHT22;15077;49.704;9.908;2023-04-06T11:57:42;16.30;38.90
27671;DHT22;15077;49.704;9.908;2023-04-06T12:00:10;16.30;40.10
27671;DHT22;15077;49.704;9.908;2023-04-06T12:02:37;16.40;39.80
27671;DHT22;15077;49.704;9.908;2023-04-06T12:05:04;16.50;39.50
27671;DHT22;15077;49.704;9.908;2023-04-06T12:07:32;16.50;38.60
27671;DHT22;15077;49.704;9.908;2023-04-06T12:10:00;16.50;38.90
27671;DHT22;15077;49.704;9.908;2023-04-06T12:12:28;16.50;39.30
27671;DHT22;15077;49.704;9.908;2023-04-06T12:14:54;16.50;39.30
27671;DHT22;15077;49.704;9.908;2023-04-06T12:17:21;16.50;38.00
27671;DHT22;15077;49.704;9.908;2023-04-06T12:19:46;16.50;38.90
27671;DHT22;15077;49.704;9.908;2023-04-06T12:22:12;16.50;38.70
27671;DHT22;15077;49.704;9.908;2023-04-06T12:24:38;16.50;39.70
27671;DHT22;15077;49.704;9.908;2023-04-06T12:27:04;16.50;40.40
27671;DHT22;15077;49.704;9.908;2023-04-06T12:29:30;16.60;40.10
27671;DHT22;15077;49.704;9.908;2023-04-06T12:31:55;16.60;39.00
27671;DHT22;15077;49.704;9.908;2023-04-06T12:34:21;16.70;38.80
27671;DHT22;15077;49.704;9.908;2023-04-06T12:36:47;16.80;38.60
27671;DHT22;15077;49.704;9.908;2023-04-06T12:39:13;16.80;38.60
27671;DHT22;15077;49.704;9.908;2023-04-06T12:41:38;16.80;39.40
27671;DHT22;15077;49.704;9.908;2023-04-06T12:44:07;16.90;38.90
27671;DHT22;15077;49.704;9.908;2023-04-06T12:46:32;17.00;38.30
27671;DHT22;15077;49.704;9.908;2023-04-06T12:48:58;17.00;38.50
27671;DHT22;15077;49.704;9.908;2023-04-06T12:51:27;17.10;38.40
27671;DHT22;15077;49.704;9.908;2023-04-06T12:53:53;17.10;38.50
27671;DHT22;15077;49.704;9.908;2023-04-06T12:56:19;17.20;37.50
27671;DHT22;15077;49.704;9.908;2023-04-06T12:58:48;17.20;36.40
27671;DHT22;15077;49.704;9.908;2023-04-06T13:01:16;17.20;37.20
27671;DHT22;15077;49.704;9.908;2023-04-06T13:03:42;17.30;37.00
27671;DHT22;15077;49.704;9.908;2023-04-06T13:06:09;17.20;36.40
27671;DHT22;15077;49.704;9.908;2023-04-06T13:08:36;17.20;37.00
27671;DHT22;15077;49.704;9.908;2023-04-06T13:11:04;17.30;36.80
27671;DHT22;15077;49.704;9.908;2023-04-06T13:13:30;17.30;37.10
27671;DHT22;15077;49.704;9.908;2023-04-06T13:16:05;17.40;37.40
27671;DHT22;15077;49.704;9.908;2023-04-06T13:18:33;17.40;37.40
27671;DHT22;15077;49.704;9.908;2023-04-06T13:21:00;17.50;38.00
27671;DHT22;15077;49.704;9.908;2023-04-06T13:23:26;17.50;37.60
27671;DHT22;15077;49.704;9.908;2023-04-06T13:26:03;17.50;35.90
27671;DHT22;15077;49.704;9.908;2023-04-06T13:28:32;17.50;36.80
27671;DHT22;15077;49.704;9.908;2023-04-06T13:30:59;17.50;36.60
27671;DHT22;15077;49.704;9.908;2023-04-06T13:33:27;17.50;35.80
27671;DHT22;15077;49.704;9.908;2023-04-06T13:35:54;17.50;34.50
27671;DHT22;15077;49.704;9.908;2023-04-06T13:38:20;17.40;35.50
27671;DHT22;15077;49.704;9.908;2023-04-06T13:40:46;17.40;35.70
27671;DHT22;15077;49.704;9.908;2023-04-06T13:43:11;17.40;35.60
27671;DHT22;15077;49.704;9.908;2023-04-06T13:45:38;17.40;35.40
27671;DHT22;15077;49.704;9.908;2023-04-06T13:48:04;17.50;35.40
27671;DHT22;15077;49.704;9.908;2023-04-06T13:50:31;17.50;35.30
27671;DHT22;15077;49.704;9.908;2023-04-06T13:52:57;17.50;35.70
27671;DHT22;15077;49.704;9.908;2023-04-06T13:55:23;17.50;35.00
27671;DHT22;15077;49.704;9.908;2023-04-06T13:57:52;17.50;35.90
27671;DHT22;15077;49.704;9.908;2023-04-06T14:00:18;17.50;36.10
27671;DHT22;15077;49.704;9.908;2023-04-06T14:02:44;17.50;35.80
27671;DHT22;15077;49.704;9.908;2023-04-06T14:05:10;17.50;36.20
27671;DHT22;15077;49.704;9.908;2023-04-06T14:07:37;17.60;36.40
27671;DHT22;15077;49.704;9.908;2023-04-06T14:10:03;17.60;36.30
27671;DHT22;15077;49.704;9.908;2023-04-06T14:12:29;17.70;35.90
27671;DHT22;15077;49.704;9.908;2023-04-06T14:14:57;17.70;35.40
27671;DHT22;15077;49.704;9.908;2023-04-06T14:17:22;17.80;35.70
27671;DHT22;15077;49.704;9.908;2023-04-06T14:19:48;17.80;36.10
27671;DHT22;15077;49.704;9.908;2023-04-06T14:22:14;17.80;35.10
27671;DHT22;15077;49.704;9.908;2023-04-06T14:24:40;17.80;34.10
27671;DHT22;15077;49.704;9.908;2023-04-06T14:27:06;17.80;34.40
27671;DHT22;15077;49.704;9.908;2023-04-06T14:29:31;17.80;34.60
27671;DHT22;15077;49.704;9.908;2023-04-06T14:31:57;17.80;35.00
27671;DHT22;15077;49.704;9.908;2023-04-06T14:34:28;17.90;35.60
27671;DHT22;15077;49.704;9.908;2023-04-06T14:36:55;17.90;35.70
27671;DHT22;15077;49.704;9.908;2023-04-06T14:39:21;17.90;35.50
27671;DHT22;15077;49.704;9.908;2023-04-06T14:41:46;17.90;34.60
27671;DHT22;15077;49.704;9.908;2023-04-06T14:44:16;17.90;33.80
27671;DHT22;15077;49.704;9.908;2023-04-06T14:46:42;17.90;34.80
27671;DHT22;15077;49.704;9.908;2023-04-06T14:49:08;17.90;34.50
27671;DHT22;15077;49.704;9.908;2023-04-06T14:51:34;17.90;34.60
27671;DHT22;15077;49.704;9.908;2023-04-06T14:54:01;17.90;34.50
27671;DHT22;15077;49.704;9.908;2023-04-06T14:56:28;17.90;34.70
27671;DHT22;15077;49.704;9.908;2023-04-06T14:58:57;17.90;34.80
27671;DHT22;15077;49.704;9.908;2023-04-06T15:01:24;17.90;34.10
27671;DHT22;15077;49.704;9.908;2023-04-06T15:03:50;17.90;34.70
27671;DHT22;15077;49.704;9.908;2023-04-06T15:06:17;17.90;35.10
27671;DHT22;15077;49.704;9.908;2023-04-06T15:08:45;17.90;35.10
27671;DHT22;15077;49.704;9.908;2023-04-06T15:11:11;17.90;34.80
27671;DHT22;15077;49.704;9.908;2023-04-06T15:13:39;17.90;35.10
27671;DHT22;15077;49.704;9.908;2023-04-06T15:16:05;17.90;35.30
27671;DHT22;15077;49.704;9.908;2023-04-06T15:18:33;17.90;34.90
27671;DHT22;15077;49.704;9.908;2023-04-06T15:20:59;17.90;34.70
27671;DHT22;15077;49.704;9.908;2023-04-06T15:23:25;17.90;34.80
27671;DHT22;15077;49.704;9.908;2023-04-06T15:25:55;18.00;34.90
27671;DHT22;15077;49.704;9.908;2023-04-06T15:28:21;18.00;34.50
27671;DHT22;15077;49.704;9.908;2023-04-06T15:30:47;18.00;34.80
27671;DHT22;15077;49.704;9.908;2023-04-06T15:33:13;18.00;34.30
27671;DHT22;15077;49.704;9.908;2023-04-06T15:35:38;18.00;33.70
27671;DHT22;15077;49.704;9.908;2023-04-06T15:38:07;18.00;33.10
27671;DHT22;15077;49.704;9.908;2023-04-06T15:40:34;17.90;32.80
27671;DHT22;15077;49.704;9.908;2023-04-06T15:43:07;17.80;33.20
27671;DHT22;15077;49.704;9.908;2023-04-06T15:45:33;17.80;34.50
27671;DHT22;15077;49.704;9.908;2023-04-06T15:47:59;17.70;33.50
27671;DHT22;15077;49.704;9.908;2023-04-06T15:50:30;17.70;33.60
27671;DHT22;15077;49.704;9.908;2023-04-06T15:52:56;17.60;33.50